ESIA

Karlsborg Air Base Airport

Karlsborg, Sweden
METAR ESIA 191350Z AUTO 11010KT 6000 BR OVC006/// 02/00 Q1018
Observed Flight Rules
Dec-19 @ 13:50 UTC (36 minutes ago) Instrument Flight Rules
Wind Visibility Clouds Conditions
110° at 10 knots 6,003 meters
  • Overcast at 600' AGL
  • Mist
Temperatures Readings
Current 2°C / 36°F
Dewpoint 0°C / 32°F
Humidity 87%
Altimeter 30.06" Hg
Pressure 1018 hPa
Elevation 94
METAR ESIA 191350Z AUTO 11010KT 6000 BR OVC006/// 02/00 Q1018
Observed Flight Rules
Dec-19 @ 13:50 UTC
(36 minutes ago)
IFR
Wind Visibility
110° at 10 knots 6,003 meters
Clouds
  • Overcast at 600' AGL
Conditions
  • Mist
Temperature Dewpoint
2°C / 36°F 0°C / 32°F
Humidity Altimeter Pressure
87% 30.06" Hg 1018 hPa